Time;durP1;ratioP1;P1;durP2;ratioP2;P2;SDS_P1;SDS_P2;PMS_P1;PMS_P2;Temp;Humidity;BMP_temperature;BMP_pressure;BME280_temperature;BME280_humidity;BME280_pressure;Samples;Min_cycle;Max_cycle;Signal;HPM_P1;HPM_P2
2022/07/22 00:00:37;;;;;;;12.40;2.30;;;16.40;99.90;;;;;;5034939;28;20557;-55
2022/07/22 00:03:03;;;;;;;9.90;2.30;;;16.50;99.90;;;;;;5054163;28;20045;-53
2022/07/22 00:05:29;;;;;;;8.75;2.55;;;16.40;99.90;;;;;;5037501;28;20113;-54
2022/07/22 00:07:54;;;;;;;10.13;2.53;;;16.40;99.90;;;;;;5027744;28;20095;-55
2022/07/22 00:10:20;;;;;;;9.40;2.55;;;16.50;99.90;;;;;;5054615;28;20037;-55
2022/07/22 00:12:46;;;;;;;9.52;2.15;;;16.50;99.90;;;;;;5035851;28;20078;-55
2022/07/22 00:15:12;;;;;;;8.23;2.35;;;16.40;99.90;;;;;;5035033;28;20044;-54
2022/07/22 00:17:38;;;;;;;4.60;1.70;;;16.40;99.90;;;;;;5037319;28;20029;-55
2022/07/22 00:20:05;;;;;;;9.48;2.08;;;16.40;99.90;;;;;;5044998;28;20567;-53
2022/07/22 00:22:30;;;;;;;10.43;1.98;;;16.50;99.90;;;;;;5026260;28;20088;-54
2022/07/22 00:24:56;;;;;;;8.98;2.58;;;16.40;99.90;;;;;;5022066;28;20123;-55
2022/07/22 00:27:22;;;;;;;8.23;2.25;;;16.40;99.90;;;;;;5049209;28;20072;-56
2022/07/22 00:29:47;;;;;;;8.68;2.17;;;16.50;99.90;;;;;;5056250;28;20499;-56
2022/07/22 00:32:13;;;;;;;9.15;2.22;;;16.40;99.90;;;;;;5039813;28;20045;-54
2022/07/22 00:34:39;;;;;;;11.05;2.83;;;16.40;99.90;;;;;;5042233;28;20298;-52
2022/07/22 00:37:06;;;;;;;8.98;3.50;;;16.40;99.90;;;;;;5056930;28;20028;-52
2022/07/22 00:39:32;;;;;;;14.93;3.20;;;16.40;99.90;;;;;;5059328;28;20071;-55
2022/07/22 00:41:59;;;;;;;12.00;2.92;;;16.40;99.90;;;;;;5039779;28;20044;-56
2022/07/22 00:44:25;;;;;;;7.60;2.25;;;16.40;99.90;;;;;;5076560;28;20279;-54
2022/07/22 00:46:51;;;;;;;9.15;2.00;;;16.40;99.90;;;;;;5038292;28;20416;-55
2022/07/22 00:49:17;;;;;;;8.63;2.15;;;16.40;99.90;;;;;;5032788;28;20049;-56
2022/07/22 00:51:43;;;;;;;5.72;2.03;;;16.40;99.90;;;;;;5062161;28;20134;-56
2022/07/22 00:54:09;;;;;;;13.32;2.92;;;16.40;99.90;;;;;;5035073;28;20510;-55
2022/07/22 00:56:36;;;;;;;8.85;2.22;;;16.40;99.90;;;;;;5015354;28;20040;-54
2022/07/22 00:59:06;;;;;;;10.45;2.30;;;16.40;99.90;;;;;;5047703;28;20033;-54
2022/07/22 01:01:32;;;;;;;8.98;2.65;;;16.30;99.90;;;;;;5016866;28;20071;-55
2022/07/22 01:03:58;;;;;;;11.35;2.78;;;16.40;99.90;;;;;;5031331;28;20098;-56
2022/07/22 01:06:24;;;;;;;6.22;1.90;;;16.30;99.90;;;;;;5043427;28;20614;-56
2022/07/22 01:08:50;;;;;;;6.93;2.40;;;16.30;99.90;;;;;;5040400;28;20047;-55
2022/07/22 01:11:19;;;;;;;7.82;2.22;;;16.30;99.90;;;;;;5048136;28;20040;-55
2022/07/22 01:13:47;;;;;;;7.18;1.92;;;16.40;99.90;;;;;;5047982;28;20032;-56
2022/07/22 01:16:15;;;;;;;6.65;1.88;;;16.30;99.90;;;;;;5032190;28;20110;-56
2022/07/22 01:18:42;;;;;;;7.95;2.03;;;16.30;99.90;;;;;;5035576;28;20119;-55
2022/07/22 01:21:09;;;;;;;8.80;2.08;;;16.30;99.90;;;;;;5022110;28;20090;-55
2022/07/22 01:23:35;;;;;;;6.22;1.95;;;16.30;99.90;;;;;;5020631;28;20094;-54
2022/07/22 01:26:03;;;;;;;8.63;1.90;;;16.30;99.90;;;;;;5046777;28;20028;-56
2022/07/22 01:28:29;;;;;;;5.95;2.60;;;16.30;99.90;;;;;;5044865;28;20090;-55
2022/07/22 01:30:54;;;;;;;7.97;1.98;;;16.30;99.90;;;;;;5046464;28;20559;-56
2022/07/22 01:33:21;;;;;;;10.00;2.40;;;16.30;99.90;;;;;;5008286;28;20095;-54
2022/07/22 01:35:47;;;;;;;10.65;2.30;;;16.30;99.90;;;;;;5040771;28;20333;-56
2022/07/22 01:38:13;;;;;;;7.68;2.58;;;16.30;99.90;;;;;;5012258;28;20123;-56
2022/07/22 01:40:40;;;;;;;5.80;1.70;;;16.30;99.90;;;;;;5058612;28;20080;-55
2022/07/22 01:43:07;;;;;;;8.68;2.10;;;16.30;99.90;;;;;;5027029;28;20068;-55
2022/07/22 01:45:33;;;;;;;8.10;1.95;;;16.30;99.90;;;;;;5060136;28;20174;-56
2022/07/22 01:47:59;;;;;;;6.90;1.92;;;16.30;99.90;;;;;;5013876;28;20375;-56
2022/07/22 01:50:25;;;;;;;8.18;2.45;;;16.30;99.90;;;;;;5041400;28;20523;-55
2022/07/22 01:52:50;;;;;;;9.00;1.95;;;16.30;99.90;;;;;;5045218;28;20025;-56
2022/07/22 01:55:16;;;;;;;10.20;2.65;;;16.30;99.90;;;;;;5046595;28;20557;-55
2022/07/22 01:57:42;;;;;;;8.27;2.28;;;16.30;99.90;;;;;;5023070;28;20483;-55
2022/07/22 02:00:09;;;;;;;7.97;1.92;;;16.30;99.90;;;;;;5047571;28;20043;-56
2022/07/22 02:02:35;;;;;;;8.57;2.20;;;16.30;99.90;;;;;;5052212;28;20098;-56
2022/07/22 02:05:03;;;;;;;5.30;1.92;;;16.30;99.90;;;;;;5016690;28;20077;-55
2022/07/22 02:07:29;;;;;;;5.95;2.05;;;16.20;99.90;;;;;;5046481;28;20128;-55
2022/07/22 02:09:54;;;;;;;6.50;2.10;;;16.20;99.90;;;;;;5056652;28;20099;-55
2022/07/22 02:12:20;;;;;;;9.07;2.20;;;16.20;99.90;;;;;;5058673;28;20082;-56
2022/07/22 02:14:46;;;;;;;6.05;2.15;;;16.30;99.90;;;;;;5050326;28;20107;-55
2022/07/22 02:17:12;;;;;;;8.85;2.05;;;16.20;99.90;;;;;;5051027;28;21234;-55
2022/07/22 02:19:38;;;;;;;7.10;2.05;;;16.20;99.90;;;;;;5045026;28;20602;-55
2022/07/22 02:22:04;;;;;;;5.15;2.15;;;16.20;99.90;;;;;;5034407;28;20044;-56
2022/07/22 02:24:30;;;;;;;11.50;2.35;;;16.20;99.90;;;;;;5069080;28;20495;-56
2022/07/22 02:26:56;;;;;;;11.52;2.75;;;16.20;99.90;;;;;;5030155;28;20045;-56
2022/07/22 02:29:22;;;;;;;12.27;2.70;;;16.20;99.90;;;;;;5043279;28;20044;-56
2022/07/22 02:31:47;;;;;;;6.03;2.05;;;16.20;99.90;;;;;;5046997;28;20524;-55
2022/07/22 02:34:14;;;;;;;8.52;2.40;;;16.20;99.90;;;;;;5037264;28;20041;-56
2022/07/22 02:36:40;;;;;;;8.32;2.42;;;16.20;99.90;;;;;;5063271;28;20195;-56
2022/07/22 02:39:06;;;;;;;5.40;2.20;;;16.20;99.90;;;;;;5047391;28;20487;-55
2022/07/22 02:41:32;;;;;;;8.00;2.28;;;16.20;99.90;;;;;;5028754;28;20070;-56
2022/07/22 02:43:58;;;;;;;10.77;2.40;;;16.20;99.90;;;;;;5050009;28;20443;-55
2022/07/22 02:46:24;;;;;;;8.50;2.05;;;16.20;99.90;;;;;;5046444;28;20119;-55
2022/07/22 02:48:50;;;;;;;8.15;2.13;;;16.20;99.90;;;;;;5030536;28;20073;-54
2022/07/22 02:51:16;;;;;;;9.63;2.20;;;16.20;99.90;;;;;;5019959;28;20045;-52
2022/07/22 02:53:42;;;;;;;8.60;2.33;;;16.20;99.90;;;;;;5034152;28;20137;-55
2022/07/22 02:56:08;;;;;;;4.00;1.42;;;16.10;99.90;;;;;;5043891;28;20339;-55
2022/07/22 02:58:34;;;;;;;10.30;2.10;;;16.20;99.90;;;;;;5057543;28;20778;-54
2022/07/22 03:00:59;;;;;;;6.03;2.05;;;16.20;99.90;;;;;;5047231;28;20254;-53
2022/07/22 03:03:25;;;;;;;6.22;2.20;;;16.20;99.90;;;;;;5033983;28;20459;-55
2022/07/22 03:05:51;;;;;;;4.63;1.77;;;16.20;99.90;;;;;;5029931;28;20102;-55
2022/07/22 03:08:17;;;;;;;13.13;3.00;;;16.10;99.90;;;;;;5045253;28;20036;-56
2022/07/22 03:10:43;;;;;;;9.02;1.98;;;16.10;99.90;;;;;;5038137;28;20135;-52
2022/07/22 03:13:08;;;;;;;7.60;1.77;;;16.20;99.90;;;;;;5003570;28;20653;-52
2022/07/22 03:15:34;;;;;;;7.63;2.05;;;16.10;99.90;;;;;;5017714;28;20052;-54
2022/07/22 03:18:00;;;;;;;9.32;2.30;;;16.10;99.90;;;;;;5064408;28;20058;-54
2022/07/22 03:20:26;;;;;;;9.80;2.50;;;16.10;99.90;;;;;;5064087;28;20057;-55
2022/07/22 03:22:51;;;;;;;7.60;1.95;;;16.10;99.90;;;;;;5047946;28;20069;-54
2022/07/22 03:25:17;;;;;;;4.32;1.50;;;16.10;99.90;;;;;;5045076;28;20041;-53
2022/07/22 03:27:44;;;;;;;4.60;1.60;;;16.10;99.90;;;;;;5035328;23;20044;-54
2022/07/22 03:30:10;;;;;;;6.15;2.17;;;16.10;99.90;;;;;;5073523;28;20580;-54
2022/07/22 03:32:36;;;;;;;5.68;2.10;;;16.10;99.90;;;;;;5011330;28;20048;-56
2022/07/22 03:35:02;;;;;;;8.77;2.13;;;16.10;99.90;;;;;;5073204;28;20041;-55
2022/07/22 03:37:28;;;;;;;10.35;2.28;;;16.10;99.90;;;;;;5055175;28;20044;-56
2022/07/22 03:39:53;;;;;;;7.32;1.92;;;16.10;99.90;;;;;;5046348;28;20415;-54
2022/07/22 03:42:19;;;;;;;6.90;2.20;;;16.10;99.90;;;;;;5062268;28;20117;-56
2022/07/22 03:44:46;;;;;;;4.97;1.80;;;16.10;99.90;;;;;;5057508;28;20237;-51
2022/07/22 03:47:16;;;;;;;6.32;1.95;;;16.10;99.90;;;;;;5024917;28;20036;-55
2022/07/22 03:49:42;;;;;;;6.63;2.17;;;16.10;99.90;;;;;;5019610;28;20044;-56
2022/07/22 03:52:08;;;;;;;11.02;2.10;;;16.10;99.90;;;;;;5051375;28;21242;-55
2022/07/22 03:54:34;;;;;;;8.93;2.03;;;16.10;99.90;;;;;;5023435;28;20045;-56
2022/07/22 03:56:59;;;;;;;6.03;1.83;;;16.20;99.90;;;;;;5034082;28;20072;-54
2022/07/22 03:59:25;;;;;;;6.65;2.00;;;16.10;99.90;;;;;;5062550;28;20040;-57
2022/07/22 04:01:51;;;;;;;5.10;1.90;;;16.10;99.90;;;;;;5048216;28;20105;-54
2022/07/22 04:04:16;;;;;;;8.18;2.08;;;16.10;99.90;;;;;;5041354;28;20256;-56
2022/07/22 04:06:42;;;;;;;4.75;1.50;;;16.10;99.90;;;;;;5041312;28;20111;-55
2022/07/22 04:09:08;;;;;;;6.20;2.03;;;16.20;99.90;;;;;;5037895;28;20081;-56
2022/07/22 04:11:34;;;;;;;5.80;2.03;;;16.20;99.90;;;;;;5024809;28;20445;-58
2022/07/22 04:14:00;;;;;;;9.95;2.17;;;16.20;99.90;;;;;;5045431;28;20570;-57
2022/07/22 04:16:25;;;;;;;9.13;1.98;;;16.20;99.90;;;;;;5078867;28;20036;-52
2022/07/22 04:18:51;;;;;;;6.82;1.95;;;16.10;99.90;;;;;;5060349;28;20426;-57
2022/07/22 04:21:17;;;;;;;6.95;1.88;;;16.10;99.90;;;;;;5021847;28;20056;-56
2022/07/22 04:23:43;;;;;;;9.02;2.05;;;16.10;99.90;;;;;;5033458;28;20059;-56
2022/07/22 04:26:09;;;;;;;7.65;1.83;;;16.10;99.90;;;;;;5059366;28;20124;-56
2022/07/22 04:28:35;;;;;;;9.95;2.47;;;16.10;99.90;;;;;;5047176;28;20051;-57
2022/07/22 04:31:03;;;;;;;5.97;1.70;;;16.10;99.90;;;;;;5047369;28;20036;-56
2022/07/22 04:33:29;;;;;;;3.67;1.60;;;16.10;99.90;;;;;;5019582;28;20155;-56
2022/07/22 04:35:55;;;;;;;6.13;1.83;;;16.10;99.90;;;;;;5047906;28;20367;-56
2022/07/22 04:38:20;;;;;;;3.67;1.60;;;16.10;99.90;;;;;;5043661;28;20040;-56
2022/07/22 04:40:46;;;;;;;8.00;1.48;;;16.10;99.90;;;;;;5059854;28;20090;-55
2022/07/22 04:43:12;;;;;;;2.72;1.30;;;16.10;99.90;;;;;;5053852;28;20049;-57
2022/07/22 04:45:37;;;;;;;6.45;1.67;;;16.10;99.90;;;;;;5046820;28;20119;-57
2022/07/22 04:48:03;;;;;;;7.32;1.65;;;16.10;99.90;;;;;;5057003;28;20079;-57
2022/07/22 04:50:29;;;;;;;6.93;1.42;;;16.10;99.90;;;;;;5056013;28;20048;-56
2022/07/22 04:52:55;;;;;;;5.85;1.50;;;16.10;99.90;;;;;;5038611;28;20044;-55
2022/07/22 04:55:21;;;;;;;7.00;1.58;;;16.20;99.90;;;;;;5064276;28;20555;-56
2022/07/22 04:57:46;;;;;;;7.07;1.90;;;16.20;99.90;;;;;;5022651;28;20380;-56
2022/07/22 05:00:13;;;;;;;4.65;1.73;;;16.20;99.90;;;;;;5062474;28;20044;-57
2022/07/22 05:02:38;;;;;;;5.20;1.40;;;16.20;99.90;;;;;;5073255;28;20043;-55
2022/07/22 05:05:04;;;;;;;5.13;1.42;;;16.30;99.90;;;;;;5037302;28;20414;-56
2022/07/22 05:07:30;;;;;;;5.47;1.48;;;16.30;99.90;;;;;;5060020;28;20040;-57
2022/07/22 05:09:56;;;;;;;10.20;2.65;;;16.30;99.90;;;;;;5019347;28;23489;-58
2022/07/22 05:12:22;;;;;;;8.07;1.55;;;16.30;99.90;;;;;;5061903;28;20503;-56
2022/07/22 05:14:48;;;;;;;5.25;1.60;;;16.40;99.90;;;;;;5042999;28;20089;-56
2022/07/22 05:17:13;;;;;;;5.10;1.75;;;16.50;99.90;;;;;;5041299;28;20111;-56
2022/07/22 05:19:40;;;;;;;7.30;1.63;;;16.50;99.90;;;;;;5054158;28;20067;-57
2022/07/22 05:22:09;;;;;;;6.22;1.50;;;16.60;99.90;;;;;;5054400;28;20123;-56
2022/07/22 05:24:35;;;;;;;2.65;1.58;;;16.60;99.90;;;;;;5036708;28;20508;-57
2022/07/22 05:27:01;;;;;;;5.30;1.50;;;16.60;99.90;;;;;;5036383;28;20494;-57
2022/07/22 05:29:27;;;;;;;7.55;1.75;;;16.60;99.90;;;;;;5039046;28;20483;-58
2022/07/22 05:31:53;;;;;;;7.15;1.35;;;16.60;99.90;;;;;;5037862;28;21787;-58
2022/07/22 05:34:19;;;;;;;5.03;1.42;;;16.60;99.90;;;;;;5034346;28;20483;-58
2022/07/22 05:36:44;;;;;;;7.80;1.67;;;16.60;99.90;;;;;;5038874;28;20044;-57
2022/07/22 05:39:10;;;;;;;5.03;2.08;;;16.60;99.90;;;;;;5034724;28;20036;-58
2022/07/22 05:41:37;;;;;;;3.92;1.55;;;16.60;99.90;;;;;;5036097;28;20284;-58
2022/07/22 05:44:03;;;;;;;9.05;1.50;;;16.60;99.90;;;;;;5035692;28;20558;-57
2022/07/22 05:46:29;;;;;;;5.55;1.85;;;16.50;99.90;;;;;;5032081;28;20235;-58
2022/07/22 05:48:54;;;;;;;4.80;1.45;;;16.50;99.90;;;;;;5062686;28;20619;-57
2022/07/22 05:51:21;;;;;;;5.53;1.55;;;16.50;99.90;;;;;;5052638;28;20277;-58
2022/07/22 05:53:48;;;;;;;7.22;2.10;;;16.50;99.90;;;;;;5024611;28;20064;-57
2022/07/22 05:56:14;;;;;;;6.38;1.42;;;16.50;99.90;;;;;;5040057;28;22076;-57
2022/07/22 05:58:40;;;;;;;7.30;2.13;;;16.50;99.90;;;;;;5033281;28;20116;-59
2022/07/22 06:01:07;;;;;;;5.13;2.10;;;16.40;99.90;;;;;;5033269;28;20053;-56
2022/07/22 06:03:33;;;;;;;7.82;2.30;;;16.40;99.90;;;;;;5050104;28;20036;-57
2022/07/22 06:06:01;;;;;;;6.35;1.60;;;16.40;99.90;;;;;;5061187;28;20555;-54
2022/07/22 06:08:27;;;;;;;8.95;2.10;;;16.50;99.90;;;;;;5023867;28;20047;-57
2022/07/22 06:10:53;;;;;;;5.57;1.58;;;16.40;99.90;;;;;;5080241;28;20518;-57
2022/07/22 06:13:19;;;;;;;4.38;1.70;;;16.50;99.90;;;;;;5041632;28;20283;-57
2022/07/22 06:15:45;;;;;;;7.95;1.98;;;16.50;99.90;;;;;;5018928;28;20048;-56
2022/07/22 06:18:11;;;;;;;7.75;2.05;;;16.60;99.90;;;;;;5057719;28;20064;-54
2022/07/22 06:20:37;;;;;;;5.20;1.80;;;16.70;99.90;;;;;;5037454;28;20033;-56
2022/07/22 06:23:02;;;;;;;6.30;1.65;;;16.80;99.90;;;;;;5074100;28;20049;-57
2022/07/22 06:25:28;;;;;;;10.10;2.00;;;16.80;99.90;;;;;;5033669;28;20119;-56
2022/07/22 06:27:54;;;;;;;7.30;1.98;;;16.90;99.90;;;;;;5046109;28;20064;-56
2022/07/22 06:30:20;;;;;;;5.72;1.73;;;17.00;99.90;;;;;;5072954;28;20240;-57
2022/07/22 06:32:46;;;;;;;6.15;1.60;;;17.00;99.90;;;;;;5040482;28;20491;-55
2022/07/22 06:35:11;;;;;;;8.60;2.50;;;17.00;99.90;;;;;;5013374;28;20052;-56
2022/07/22 06:37:37;;;;;;;8.57;1.70;;;17.00;99.90;;;;;;5053116;28;20040;-58
2022/07/22 06:40:03;;;;;;;8.25;1.98;;;17.00;99.90;;;;;;5035413;28;20048;-58
2022/07/22 06:42:29;;;;;;;5.22;2.00;;;17.00;99.90;;;;;;5030139;28;20062;-55
2022/07/22 06:44:55;;;;;;;7.55;2.20;;;17.00;99.90;;;;;;5037040;28;20045;-57
2022/07/22 06:47:21;;;;;;;4.38;2.03;;;17.10;99.90;;;;;;5029346;28;20051;-56
2022/07/22 06:49:47;;;;;;;6.85;1.83;;;17.10;99.90;;;;;;5033578;28;20470;-56
2022/07/22 06:52:12;;;;;;;4.22;1.75;;;17.10;99.90;;;;;;5034532;28;20045;-58
2022/07/22 06:54:38;;;;;;;7.28;2.05;;;17.10;99.90;;;;;;5039147;28;20040;-56
2022/07/22 06:57:04;;;;;;;6.65;1.50;;;17.10;99.90;;;;;;5023847;28;20237;-56
2022/07/22 06:59:29;;;;;;;7.72;2.13;;;17.10;99.90;;;;;;5047456;28;20491;-58
2022/07/22 07:01:55;;;;;;;4.15;1.48;;;17.10;99.90;;;;;;5051108;28;20109;-58
2022/07/22 07:04:21;;;;;;;5.35;1.90;;;17.10;99.90;;;;;;5032136;28;20039;-57
2022/07/22 07:06:47;;;;;;;4.70;1.42;;;17.20;99.90;;;;;;5025524;28;20036;-56
2022/07/22 07:09:12;;;;;;;6.72;2.03;;;17.30;99.90;;;;;;5033011;28;20036;-57
2022/07/22 07:11:38;;;;;;;3.28;1.40;;;17.30;99.90;;;;;;5072035;28;20538;-59
2022/07/22 07:14:04;;;;;;;8.63;1.70;;;17.20;99.90;;;;;;5055150;28;20040;-57
2022/07/22 07:16:30;;;;;;;8.48;1.80;;;17.30;99.90;;;;;;5042090;28;20044;-57
2022/07/22 07:18:55;;;;;;;4.38;1.55;;;17.30;99.90;;;;;;5063632;28;20036;-57
2022/07/22 07:21:21;;;;;;;8.63;1.60;;;17.20;99.90;;;;;;5040537;28;20044;-56
2022/07/22 07:23:47;;;;;;;5.65;1.73;;;17.20;99.90;;;;;;5074537;28;20079;-57
2022/07/22 07:26:13;;;;;;;7.78;1.60;;;17.20;99.90;;;;;;5041358;28;20032;-57
2022/07/22 07:28:39;;;;;;;7.15;1.63;;;17.10;99.90;;;;;;5040002;28;20635;-57
2022/07/22 07:31:08;;;;;;;5.75;1.55;;;17.10;99.90;;;;;;5036552;28;20761;-57
2022/07/22 07:33:34;;;;;;;3.28;1.30;;;17.10;99.90;;;;;;5037823;28;20050;-57
2022/07/22 07:36:00;;;;;;;6.57;1.50;;;17.10;99.90;;;;;;5037504;28;20072;-56
2022/07/22 07:38:26;;;;;;;6.53;1.45;;;17.10;99.90;;;;;;5041748;28;20122;-57
2022/07/22 07:40:52;;;;;;;5.63;1.58;;;17.10;99.90;;;;;;5018150;28;20044;-56
2022/07/22 07:43:18;;;;;;;6.25;1.88;;;17.10;99.90;;;;;;5041029;28;20102;-54
2022/07/22 07:45:43;;;;;;;6.60;1.60;;;17.10;99.90;;;;;;5036555;28;20035;-57
2022/07/22 07:48:09;;;;;;;3.72;1.13;;;17.10;99.90;;;;;;5042035;28;20039;-57
2022/07/22 07:50:35;;;;;;;2.92;1.20;;;17.10;99.90;;;;;;5034686;28;20040;-57
2022/07/22 07:53:01;;;;;;;3.08;1.23;;;17.20;99.90;;;;;;5038799;28;20495;-57
2022/07/22 07:55:27;;;;;;;4.68;1.20;;;17.30;99.90;;;;;;5042246;28;20078;-57
2022/07/22 07:57:53;;;;;;;4.03;1.15;;;17.30;99.90;;;;;;5056476;28;20040;-57
2022/07/22 08:00:28;;;;;;;3.28;1.50;;;17.40;99.90;;;;;;5065830;28;20433;-55
2022/07/22 08:02:57;;;;;;;4.53;1.05;;;17.50;99.90;;;;;;5070198;28;20403;-56
2022/07/22 08:05:23;;;;;;;5.10;0.93;;;17.60;99.90;;;;;;5057249;28;20033;-57
2022/07/22 08:07:50;;;;;;;4.32;0.90;;;17.70;99.90;;;;;;5021516;28;20045;-56
2022/07/22 08:10:17;;;;;;;4.05;1.27;;;17.70;99.90;;;;;;5059275;28;20305;-57
2022/07/22 08:12:42;;;;;;;3.92;1.05;;;17.70;99.90;;;;;;5032364;28;20819;-58
2022/07/22 08:15:09;;;;;;;3.90;1.05;;;17.80;99.90;;;;;;5029843;28;20056;-58
2022/07/22 08:17:35;;;;;;;1.50;0.80;;;17.70;99.90;;;;;;5033490;28;20045;-56
2022/07/22 08:20:01;;;;;;;6.25;1.10;;;17.60;99.90;;;;;;5054272;28;20040;-57
2022/07/22 08:22:27;;;;;;;2.67;1.00;;;17.60;99.90;;;;;;5037267;28;20036;-56
2022/07/22 08:24:54;;;;;;;2.88;0.90;;;17.70;99.90;;;;;;5048075;28;20094;-56
2022/07/22 08:27:20;;;;;;;2.15;0.68;;;17.70;99.90;;;;;;5044016;28;20384;-58
2022/07/22 08:29:46;;;;;;;3.90;0.70;;;17.60;99.90;;;;;;5043079;28;20041;-57
2022/07/22 08:32:12;;;;;;;1.52;0.80;;;17.60;99.90;;;;;;5028069;28;20036;-58
2022/07/22 08:34:37;;;;;;;2.47;0.85;;;17.60;99.90;;;;;;5040111;28;20141;-58
2022/07/22 08:37:03;;;;;;;1.90;0.68;;;17.70;99.90;;;;;;5060520;28;20415;-58
2022/07/22 08:39:29;;;;;;;1.63;0.68;;;17.70;99.90;;;;;;5045527;28;20037;-57
2022/07/22 08:41:56;;;;;;;3.88;0.90;;;17.80;99.90;;;;;;5039154;28;20515;-57
2022/07/22 08:44:22;;;;;;;1.23;0.70;;;17.80;99.90;;;;;;5046938;28;20044;-57
2022/07/22 08:46:48;;;;;;;2.88;0.90;;;17.80;99.90;;;;;;5038974;28;20866;-57
2022/07/22 08:49:16;;;;;;;2.75;1.00;;;17.80;99.90;;;;;;5034983;28;20184;-56
2022/07/22 08:51:41;;;;;;;1.67;0.70;;;17.70;99.90;;;;;;5068915;28;20292;-58
2022/07/22 08:54:07;;;;;;;3.95;1.08;;;17.60;99.90;;;;;;5049873;28;20478;-58
2022/07/22 08:56:33;;;;;;;2.45;1.00;;;17.70;99.90;;;;;;5063555;28;20077;-58
2022/07/22 08:58:59;;;;;;;3.58;1.10;;;17.90;99.90;;;;;;5021984;28;20033;-57
2022/07/22 09:01:24;;;;;;;1.88;0.70;;;18.00;99.90;;;;;;5035360;28;20051;-57
2022/07/22 09:03:55;;;;;;;2.13;1.13;;;18.10;99.90;;;;;;5054975;28;20075;-57
2022/07/22 09:06:22;;;;;;;3.08;0.88;;;18.10;99.90;;;;;;5075996;28;20091;-57
2022/07/22 09:08:57;;;;;;;2.28;0.90;;;18.00;99.90;;;;;;5052308;28;20105;-58
2022/07/22 09:11:26;;;;;;;4.78;1.00;;;18.00;99.90;;;;;;5045985;28;20050;-56
2022/07/22 09:13:52;;;;;;;2.78;0.90;;;18.00;99.90;;;;;;5065094;28;20036;-58
2022/07/22 09:16:41;;;;;;;4.72;1.38;;;17.80;99.90;;;;;;5067722;28;20098;-57
2022/07/22 09:19:07;;;;;;;4.45;1.30;;;17.80;99.90;;;;;;5029652;28;20116;-57
2022/07/22 09:21:35;;;;;;;2.60;0.77;;;17.90;99.90;;;;;;5046758;28;20128;-56
2022/07/22 09:24:01;;;;;;;3.70;1.10;;;18.00;99.90;;;;;;5063137;28;20107;-58
2022/07/22 09:26:36;;;;;;;5.70;1.08;;;18.10;99.90;;;;;;5031082;23;20494;-53
2022/07/22 09:29:04;;;;;;;3.17;1.10;;;18.10;99.90;;;;;;4922385;28;20490;-56
2022/07/22 09:31:33;;;;;;;6.43;1.45;;;18.20;99.90;;;;;;4946996;28;20098;-58
2022/07/22 09:33:59;;;;;;;9.48;1.13;;;18.10;99.90;;;;;;4941512;28;20134;-55
2022/07/22 09:36:26;;;;;;;3.05;0.90;;;18.20;99.90;;;;;;4969518;28;20086;-56
2022/07/22 09:38:52;;;;;;;2.83;0.90;;;18.30;99.90;;;;;;4961899;28;20482;-55
2022/07/22 09:41:18;;;;;;;2.75;1.02;;;18.30;99.90;;;;;;4970910;28;20047;-57
2022/07/22 09:43:44;;;;;;;5.32;1.10;;;18.40;99.90;;;;;;4957292;28;20049;-55
2022/07/22 09:46:10;;;;;;;6.82;1.25;;;18.50;99.90;;;;;;4961129;28;20656;-55
2022/07/22 09:48:37;;;;;;;2.97;0.85;;;18.60;99.90;;;;;;4944807;28;20521;-56
2022/07/22 09:51:04;;;;;;;5.07;1.00;;;18.60;99.90;;;;;;4938053;28;20043;-56
2022/07/22 09:53:31;;;;;;;3.10;0.80;;;18.70;99.90;;;;;;4989094;28;20504;-56
2022/07/22 09:55:58;;;;;;;1.80;0.77;;;18.80;99.90;;;;;;4985559;28;20045;-58
2022/07/22 09:58:26;;;;;;;1.20;0.60;;;18.90;99.90;;;;;;4932526;28;20101;-57
2022/07/22 10:00:53;;;;;;;1.92;0.60;;;18.90;99.90;;;;;;4964390;28;20039;-55
2022/07/22 10:03:25;;;;;;;1.83;0.60;;;19.10;99.90;;;;;;4931181;28;20101;-58
2022/07/22 10:05:52;;;;;;;1.40;0.60;;;19.20;99.90;;;;;;4926551;28;20035;-57
2022/07/22 10:08:19;;;;;;;3.20;0.70;;;19.30;99.90;;;;;;4961822;28;20054;-55
2022/07/22 10:10:44;;;;;;;1.95;0.65;;;19.30;99.90;;;;;;4933253;28;20051;-57
2022/07/22 10:13:10;;;;;;;1.80;0.43;;;19.40;99.90;;;;;;4932196;28;20054;-57
2022/07/22 10:15:38;;;;;;;1.52;0.50;;;19.50;99.90;;;;;;4926122;28;20070;-58
2022/07/22 10:18:25;;;;;;;2.08;0.65;;;19.70;99.90;;;;;;4934515;28;20051;-58
2022/07/22 10:21:08;;;;;;;1.88;0.60;;;19.60;99.90;;;;;;4932348;28;20058;-53
2022/07/22 10:23:34;;;;;;;3.40;0.80;;;19.20;99.90;;;;;;4937998;28;20047;-54
2022/07/22 10:26:02;;;;;;;0.85;0.70;;;19.10;99.90;;;;;;4936106;28;20580;-53
2022/07/22 10:28:33;;;;;;;2.53;0.90;;;19.10;99.90;;;;;;4967691;28;20050;-52
2022/07/22 10:31:22;;;;;;;0.85;0.60;;;19.10;99.90;;;;;;4969384;28;20165;-55
2022/07/22 10:33:56;;;;;;;2.67;0.60;;;19.00;99.90;;;;;;4949670;28;20166;-57
2022/07/22 10:36:34;;;;;;;3.42;0.90;;;18.80;99.90;;;;;;4936031;28;20197;-58
2022/07/22 10:39:13;;;;;;;0.98;0.55;;;18.90;99.90;;;;;;4956816;28;20047;-56
2022/07/22 10:41:44;;;;;;;4.70;0.98;;;19.00;99.90;;;;;;4952069;28;20036;-57
2022/07/22 10:44:11;;;;;;;3.30;0.80;;;19.00;99.90;;;;;;4974479;28;20069;-57
2022/07/22 10:46:53;;;;;;;2.65;0.70;;;19.00;99.90;;;;;;4951588;28;20058;-56
2022/07/22 10:49:21;;;;;;;2.90;0.90;;;19.00;99.90;;;;;;4967650;28;20047;-58
2022/07/22 10:52:10;;;;;;;3.15;0.82;;;19.00;99.90;;;;;;4936682;28;20051;-56
2022/07/22 10:55:25;;;;;;;4.38;0.70;;;18.80;99.90;;;;;;4942277;28;20138;-55
2022/07/22 10:57:51;;;;;;;0.90;0.70;;;18.70;99.90;;;;;;4928646;28;20425;-58
2022/07/22 11:00:16;;;;;;;2.50;0.63;;;18.70;99.90;;;;;;4988853;28;20506;-58
2022/07/22 11:02:43;;;;;;;4.03;0.82;;;18.50;99.90;;;;;;4937319;28;20118;-54
2022/07/22 11:05:09;;;;;;;1.15;0.73;;;18.50;99.90;;;;;;4987358;28;20118;-55
2022/07/22 11:07:41;;;;;;;2.05;0.88;;;18.40;99.90;;;;;;4949586;28;20667;-57
2022/07/22 11:10:16;;;;;;;4.68;0.82;;;18.50;99.90;;;;;;4933724;28;20482;-57
2022/07/22 11:12:43;;;;;;;1.95;0.82;;;18.70;99.90;;;;;;4933606;28;20050;-57
2022/07/22 11:15:09;;;;;;;2.55;0.60;;;19.10;99.90;;;;;;4940794;28;20106;-56
2022/07/22 11:17:36;;;;;;;2.58;0.80;;;19.30;99.90;;;;;;4943590;28;20031;-59
2022/07/22 11:20:08;;;;;;;7.72;1.65;;;19.50;99.90;;;;;;4937269;28;20139;-56
2022/07/22 11:22:35;;;;;;;1.83;0.73;;;19.70;99.90;;;;;;4974248;28;20039;-57
2022/07/22 11:25:03;;;;;;;3.80;1.00;;;19.80;99.90;;;;;;4938579;28;20109;-57
2022/07/22 11:27:29;;;;;;;2.10;0.80;;;19.90;99.70;;;;;;4935860;28;20066;-57
2022/07/22 11:30:48;;;;;;;3.65;0.80;;;20.00;99.50;;;;;;4967018;28;20136;-56
2022/07/22 11:33:14;;;;;;;2.55;0.80;;;20.10;99.30;;;;;;4937715;28;20440;-58
2022/07/22 11:35:39;;;;;;;3.85;0.75;;;20.20;99.70;;;;;;4918722;28;20101;-58
2022/07/22 11:38:06;;;;;;;2.00;0.90;;;20.10;99.10;;;;;;4964585;28;20039;-55
2022/07/22 11:40:33;;;;;;;2.58;1.17;;;19.90;99.00;;;;;;4933388;28;20066;-58
2022/07/22 11:43:03;;;;;;;3.80;0.90;;;19.60;98.20;;;;;;4952084;28;20050;-56
2022/07/22 11:45:29;;;;;;;1.23;0.60;;;19.30;98.80;;;;;;4932565;28;20047;-58
2022/07/22 11:47:55;;;;;;;3.03;0.70;;;19.20;99.40;;;;;;4935632;28;20051;-55
2022/07/22 11:50:31;;;;;;;1.55;0.80;;;19.10;99.30;;;;;;4970341;28;20466;-56
2022/07/22 11:52:57;;;;;;;2.22;0.80;;;18.80;99.20;;;;;;4939486;28;20569;-55
2022/07/22 11:55:22;;;;;;;2.25;1.02;;;18.70;99.10;;;;;;4954556;28;20058;-58
2022/07/22 11:57:48;;;;;;;1.92;0.70;;;18.70;99.50;;;;;;4919144;28;20069;-56
2022/07/22 12:00:16;;;;;;;1.88;0.80;;;18.70;99.60;;;;;;4977739;28;20075;-55
2022/07/22 12:02:42;;;;;;;4.63;1.30;;;18.70;99.00;;;;;;4965862;28;20520;-59
2022/07/22 12:05:08;;;;;;;3.88;1.20;;;18.80;99.80;;;;;;4946765;28;20039;-56
2022/07/22 12:07:34;;;;;;;2.53;0.77;;;19.00;99.60;;;;;;4946995;28;20252;-54
2022/07/22 12:10:01;;;;;;;2.85;1.00;;;19.10;99.60;;;;;;4940181;28;20045;-53
2022/07/22 12:12:41;;;;;;;3.45;0.90;;;19.20;99.80;;;;;;4942916;28;20048;-56
2022/07/22 12:15:08;;;;;;;1.73;1.20;;;19.30;99.90;;;;;;4970625;28;20043;-53
2022/07/22 12:17:34;;;;;;;4.65;1.00;;;19.40;99.90;;;;;;4969626;28;20039;-57
2022/07/22 12:20:10;;;;;;;1.95;0.88;;;19.40;99.90;;;;;;4980719;28;20551;-56
2022/07/22 12:22:45;;;;;;;3.60;1.13;;;19.50;99.90;;;;;;4947822;28;20047;-56
2022/07/22 12:25:11;;;;;;;9.55;2.17;;;19.50;99.90;;;;;;4940745;28;20086;-55
2022/07/22 12:27:36;;;;;;;4.38;1.48;;;19.60;99.90;;;;;;4950522;28;20074;-58
2022/07/22 12:30:12;;;;;;;2.85;1.10;;;19.70;99.90;;;;;;4942411;28;20065;-54
2022/07/22 12:32:47;;;;;;;5.97;1.50;;;19.60;99.90;;;;;;4945494;28;20043;-58
2022/07/22 12:35:15;;;;;;;3.03;1.10;;;19.60;99.90;;;;;;4978617;28;20104;-55
2022/07/22 12:37:41;;;;;;;4.25;1.42;;;19.40;99.90;;;;;;4929733;28;20046;-58
2022/07/22 12:40:21;;;;;;;5.45;1.30;;;19.50;99.90;;;;;;4944347;28;20039;-56
2022/07/22 12:42:59;;;;;;;4.43;1.20;;;19.60;99.90;;;;;;4933172;28;20066;-55
2022/07/22 12:45:27;;;;;;;5.82;1.77;;;19.70;99.90;;;;;;4961689;28;20517;-58